Time;durP1;ratioP1;P1;durP2;ratioP2;P2;SDS_P1;SDS_P2;PMS_P1;PMS_P2;Temp;Humidity;BMP_temperature;BMP_pressure;BME280_temperature;BME280_humidity;BME280_pressure;Samples;Min_cycle;Max_cycle;Signal;HPM_P1;HPM_P2
2022/05/06 00:00:22;;;;;;;13.23;11.57;;;11.90;71.20;;;;;;5093886;28;20060;-91
2022/05/06 00:02:49;;;;;;;13.40;10.95;;;11.90;71.20;;;;;;5093913;28;20105;-91
2022/05/06 00:05:16;;;;;;;13.35;11.38;;;11.80;71.20;;;;;;5093943;28;20040;-90
2022/05/06 00:07:43;;;;;;;13.95;11.48;;;11.80;71.20;;;;;;5093767;28;20101;-92
2022/05/06 00:10:10;;;;;;;12.27;10.15;;;11.70;71.20;;;;;;5093666;28;20448;-90
2022/05/06 00:12:39;;;;;;;13.82;11.50;;;11.70;71.20;;;;;;5094214;28;20086;-91
2022/05/06 00:15:07;;;;;;;13.93;10.77;;;11.70;71.20;;;;;;5093701;28;20063;-90
2022/05/06 00:17:35;;;;;;;12.35;10.75;;;11.60;71.20;;;;;;5093613;28;20567;-91
2022/05/06 00:20:03;;;;;;;13.18;11.02;;;11.60;71.20;;;;;;5093277;28;20426;-91
2022/05/06 00:22:30;;;;;;;12.85;11.38;;;11.60;71.20;;;;;;5093348;28;20440;-91
2022/05/06 00:24:56;;;;;;;14.20;11.65;;;11.60;71.20;;;;;;5093801;28;20040;-91
2022/05/06 00:27:23;;;;;;;15.18;11.82;;;11.50;71.20;;;;;;5092246;28;20052;-91
2022/05/06 00:29:50;;;;;;;13.73;12.13;;;11.50;71.20;;;;;;5093286;28;20040;-91
2022/05/06 00:32:18;;;;;;;13.93;12.43;;;11.40;71.20;;;;;;5093322;28;20525;-91
2022/05/06 00:34:44;;;;;;;13.65;11.82;;;11.40;71.20;;;;;;5093509;28;20106;-91
2022/05/06 00:37:11;;;;;;;14.55;11.75;;;11.40;71.20;;;;;;5092918;28;20093;-91
2022/05/06 00:39:57;;;;;;;12.90;11.30;;;11.40;71.20;;;;;;5093688;28;20113;-91
2022/05/06 00:42:25;;;;;;;14.02;11.65;;;11.30;71.20;;;;;;5092980;28;20079;-92
2022/05/06 00:44:53;;;;;;;14.20;11.57;;;11.30;71.20;;;;;;5093266;28;20047;-90
2022/05/06 00:47:22;;;;;;;12.90;11.35;;;11.30;71.20;;;;;;5093113;28;20097;-91
2022/05/06 00:50:09;;;;;;;16.73;11.98;;;11.20;71.30;;;;;;5093079;28;20089;-90
2022/05/06 00:52:36;;;;;;;15.02;11.82;;;11.20;71.30;;;;;;5077476;28;20102;-90
2022/05/06 00:55:04;;;;;;;15.85;11.93;;;11.20;71.30;;;;;;5093486;28;20556;-92
2022/05/06 01:00:20;;;;;;;15.82;11.07;;;11.10;71.30;;;;;;5092950;28;20044;-91
2022/05/06 01:02:48;;;;;;;14.23;11.40;;;11.10;71.30;;;;;;5092994;28;20052;-91
2022/05/06 01:05:15;;;;;;;13.98;11.80;;;11.00;71.30;;;;;;5092886;28;20046;-91
2022/05/06 01:07:46;;;;;;;13.32;11.90;;;11.00;71.30;;;;;;5092483;28;20044;-92
2022/05/06 01:10:13;;;;;;;14.20;11.52;;;11.00;71.40;;;;;;5092932;28;20093;-92
2022/05/06 01:12:40;;;;;;;14.07;12.38;;;10.90;71.40;;;;;;5093129;28;20465;-90
2022/05/06 01:15:20;;;;;;;15.02;12.48;;;10.90;71.40;;;;;;5092828;28;20048;-91
2022/05/06 01:17:51;;;;;;;15.95;12.38;;;10.90;71.50;;;;;;5092390;28;20051;-91
2022/05/06 01:20:21;;;;;;;14.98;12.60;;;10.90;71.50;;;;;;5091049;28;20090;-90
2022/05/06 01:22:54;;;;;;;15.05;12.65;;;10.90;71.60;;;;;;5092123;28;20448;-91
2022/05/06 01:25:21;;;;;;;15.57;12.55;;;10.90;71.70;;;;;;5091510;28;20085;-90
2022/05/06 01:28:05;;;;;;;15.93;12.90;;;10.80;71.70;;;;;;5093084;28;20387;-92
2022/05/06 01:30:48;;;;;;;15.80;13.40;;;10.80;71.80;;;;;;5092542;28;20048;-91
2022/05/06 01:33:22;;;;;;;15.52;13.07;;;10.80;71.80;;;;;;5092225;28;20051;-91
2022/05/06 01:35:50;;;;;;;;;;;10.70;71.80;;;;;;5092205;28;20101;-92
2022/05/06 01:38:37;;;;;;;15.45;13.13;;;10.70;71.90;;;;;;5092135;28;19967;-92
2022/05/06 01:41:08;;;;;;;14.98;12.75;;;10.70;71.90;;;;;;5092054;28;20056;-91
2022/05/06 01:43:42;;;;;;;17.45;12.55;;;10.70;72.00;;;;;;5076692;28;20047;-91
2022/05/06 01:46:15;;;;;;;16.27;13.02;;;10.60;72.00;;;;;;5092617;28;20048;-91
2022/05/06 01:48:42;;;;;;;16.23;13.85;;;10.60;72.10;;;;;;5090476;28;20574;-91
2022/05/06 01:51:13;;;;;;;17.95;14.02;;;10.60;72.10;;;;;;5091800;28;20048;-92
2022/05/06 01:53:41;;;;;;;15.88;13.05;;;10.60;72.20;;;;;;5091969;28;20036;-92
2022/05/06 01:56:28;;;;;;;15.75;13.20;;;10.60;72.20;;;;;;5092152;28;20097;-92
2022/05/06 01:58:55;;;;;;;17.50;13.95;;;10.60;72.30;;;;;;5091998;28;20067;-93
2022/05/06 02:01:22;;;;;;;17.25;14.23;;;10.50;72.30;;;;;;5091953;28;20130;-91
2022/05/06 02:06:34;;;;;;;16.95;13.07;;;10.50;72.40;;;;;;5089221;28;20048;-91
2022/05/06 02:09:01;;;;;;;16.10;14.18;;;10.50;72.40;;;;;;5091971;28;20471;-92
2022/05/06 02:11:28;;;;;;;16.55;13.60;;;10.50;72.40;;;;;;5091989;28;20559;-91
2022/05/06 02:13:55;;;;;;;17.45;13.68;;;10.50;72.40;;;;;;5092336;28;20043;-90
2022/05/06 02:16:22;;;;;;;15.82;13.65;;;10.40;72.40;;;;;;5091942;28;20113;-90
2022/05/06 02:18:49;;;;;;;15.35;12.63;;;10.40;72.40;;;;;;5091973;28;20460;-91
2022/05/06 02:21:16;;;;;;;17.08;14.50;;;10.40;72.40;;;;;;5091854;28;20048;-91
2022/05/06 02:23:43;;;;;;;15.70;13.80;;;10.40;72.40;;;;;;5091609;28;20524;-92
2022/05/06 02:26:10;;;;;;;17.80;14.38;;;10.40;72.40;;;;;;5091821;28;20102;-92
2022/05/06 02:28:37;;;;;;;17.83;13.90;;;10.40;72.40;;;;;;5091829;28;20102;-93
2022/05/06 02:33:53;;;;;;;18.33;14.38;;;10.40;72.40;;;;;;5091196;28;20078;-93
2022/05/06 02:36:20;;;;;;;18.40;14.43;;;10.30;72.40;;;;;;5091431;28;20060;-91
2022/05/06 02:38:47;;;;;;;15.80;13.45;;;10.30;72.40;;;;;;5091387;28;20395;-91
2022/05/06 02:41:15;;;;;;;17.05;13.88;;;10.30;72.40;;;;;;5091575;28;20058;-91
2022/05/06 02:43:42;;;;;;;16.50;14.10;;;10.20;72.40;;;;;;5092173;28;20047;-91
2022/05/06 02:46:09;;;;;;;16.38;14.45;;;10.20;72.40;;;;;;5095688;28;20048;-91
2022/05/06 02:48:55;;;;;;;17.60;13.90;;;10.20;72.30;;;;;;5094523;28;20048;-92
2022/05/06 02:51:22;;;;;;;20.08;15.07;;;10.20;72.30;;;;;;5095415;28;20048;-91
2022/05/06 02:53:49;;;;;;;17.38;15.02;;;10.20;72.30;;;;;;5095287;28;20043;-91
2022/05/06 02:56:16;;;;;;;17.77;14.77;;;10.20;72.40;;;;;;5095233;28;20059;-90
2022/05/06 02:58:43;;;;;;;17.33;14.60;;;10.10;72.40;;;;;;5095408;28;20160;-90
2022/05/06 03:01:10;;;;;;;17.75;14.52;;;10.10;72.40;;;;;;5095460;28;20098;-91
2022/05/06 03:03:37;;;;;;;17.55;14.75;;;10.10;72.40;;;;;;5095310;28;20048;-92
2022/05/06 03:06:04;;;;;;;17.88;15.55;;;10.10;72.40;;;;;;5095036;28;20493;-91
2022/05/06 03:08:31;;;;;;;19.48;15.50;;;10.10;72.30;;;;;;5095024;28;20176;-92
2022/05/06 03:10:59;;;;;;;18.52;15.18;;;10.00;72.30;;;;;;5095297;28;20173;-92
2022/05/06 03:13:26;;;;;;;19.50;15.18;;;10.00;72.30;;;;;;5094992;28;20390;-91
2022/05/06 03:15:52;;;;;;;20.67;16.02;;;10.00;72.30;;;;;;5095663;28;20513;-90
2022/05/06 03:18:20;;;;;;;18.42;15.65;;;10.00;72.30;;;;;;5094440;28;20097;-91
2022/05/06 03:20:46;;;;;;;22.35;16.83;;;10.00;72.40;;;;;;5095049;28;20098;-91
2022/05/06 03:23:15;;;;;;;19.83;16.58;;;9.90;72.30;;;;;;5094798;28;20044;-92
2022/05/06 03:25:42;;;;;;;19.15;16.58;;;9.90;72.30;;;;;;5094852;28;20571;-90
2022/05/06 03:28:09;;;;;;;19.02;16.08;;;9.90;72.40;;;;;;5094967;28;20109;-92
2022/05/06 03:30:40;;;;;;;20.15;16.75;;;9.90;72.40;;;;;;5095089;28;20052;-92
2022/05/06 03:33:08;;;;;;;21.02;16.20;;;9.90;72.40;;;;;;5094469;28;20066;-91
2022/05/06 03:35:37;;;;;;;19.95;16.30;;;9.90;72.40;;;;;;5094654;28;20098;-91
2022/05/06 03:38:06;;;;;;;20.35;16.63;;;9.80;72.40;;;;;;5094553;28;20074;-91
2022/05/06 03:40:33;;;;;;;20.63;15.68;;;9.80;72.40;;;;;;5078991;28;20101;-91
2022/05/06 03:43:00;;;;;;;20.52;16.50;;;9.80;72.40;;;;;;5091057;28;20063;-91
2022/05/06 03:45:27;;;;;;;22.45;16.70;;;9.70;72.30;;;;;;5094647;28;20097;-91
2022/05/06 03:47:57;;;;;;;17.65;15.43;;;9.70;72.30;;;;;;5093988;28;20052;-91
2022/05/06 03:53:10;;;;;;;20.60;17.63;;;9.70;72.30;;;;;;5094391;28;20087;-92
2022/05/06 03:55:37;;;;;;;20.48;17.27;;;9.70;72.40;;;;;;5093174;28;20052;-91
2022/05/06 03:58:04;;;;;;;21.83;17.60;;;9.60;72.40;;;;;;5094738;28;20457;-92
2022/05/06 04:00:31;;;;;;;20.83;16.85;;;9.60;72.50;;;;;;5094236;28;20105;-92
2022/05/06 04:02:58;;;;;;;22.15;17.63;;;9.60;72.50;;;;;;5094117;28;20421;-91
2022/05/06 04:05:33;;;;;;;23.50;18.80;;;9.60;72.50;;;;;;5094139;28;20052;-91
2022/05/06 04:08:01;;;;;;;20.13;16.98;;;9.60;72.60;;;;;;5094112;28;20044;-92
2022/05/06 04:10:29;;;;;;;19.85;17.60;;;9.60;72.60;;;;;;5092794;28;20424;-92
2022/05/06 04:12:57;;;;;;;23.83;18.60;;;9.50;72.60;;;;;;5094515;28;20452;-92
2022/05/06 04:15:24;;;;;;;23.83;18.45;;;9.50;72.60;;;;;;5093599;28;20048;-91
2022/05/06 04:17:51;;;;;;;24.40;19.80;;;9.50;72.70;;;;;;5092386;28;20040;-90
2022/05/06 04:25:50;;;;;;;25.25;18.77;;;9.50;72.70;;;;;;5080363;28;20117;-92
2022/05/06 04:28:17;;;;;;;23.65;18.98;;;9.50;72.70;;;;;;5093651;28;20048;-91
2022/05/06 04:30:44;;;;;;;24.38;18.92;;;9.40;72.80;;;;;;5093899;28;20044;-91
2022/05/06 04:33:11;;;;;;;23.80;18.63;;;9.40;72.80;;;;;;5092712;28;20506;-91
2022/05/06 04:35:39;;;;;;;21.75;18.90;;;9.40;72.80;;;;;;5093390;28;20089;-90
2022/05/06 04:38:06;;;;;;;22.42;18.88;;;9.40;72.80;;;;;;5092171;28;20073;-90
2022/05/06 04:40:33;;;;;;;23.27;18.27;;;9.40;72.80;;;;;;5093482;28;20109;-90
2022/05/06 04:43:01;;;;;;;21.65;18.63;;;9.40;72.90;;;;;;5089868;28;20044;-92
2022/05/06 04:45:28;;;;;;;23.05;18.83;;;9.40;72.90;;;;;;5093238;28;20056;-91
2022/05/06 04:47:56;;;;;;;25.27;18.95;;;9.40;72.90;;;;;;5093188;28;20043;-91
2022/05/06 04:50:23;;;;;;;25.67;20.70;;;9.40;72.90;;;;;;5093278;28;20460;-92
2022/05/06 04:52:50;;;;;;;27.85;19.63;;;9.40;73.00;;;;;;5092317;28;20494;-92
2022/05/06 04:55:16;;;;;;;22.50;18.58;;;9.30;73.00;;;;;;5093344;28;20109;-90
2022/05/06 04:57:43;;;;;;;21.77;18.48;;;9.30;73.00;;;;;;5091659;28;20048;-92
2022/05/06 05:00:10;;;;;;;24.55;19.63;;;9.30;73.00;;;;;;5092636;28;20465;-92
2022/05/06 05:02:37;;;;;;;24.13;20.30;;;9.30;73.00;;;;;;5093112;28;20097;-90
2022/05/06 05:05:05;;;;;;;23.35;19.95;;;9.30;73.00;;;;;;5093289;28;20040;-92
2022/05/06 05:07:32;;;;;;;23.83;18.63;;;9.30;73.10;;;;;;5075454;28;20097;-91
2022/05/06 05:09:58;;;;;;;22.38;18.08;;;9.20;73.10;;;;;;5089262;28;20056;-92
2022/05/06 05:12:26;;;;;;;23.75;20.15;;;9.20;73.10;;;;;;5093146;28;20047;-91
2022/05/06 05:14:53;;;;;;;25.08;19.42;;;9.20;73.10;;;;;;5091014;28;20044;-91
2022/05/06 05:17:20;;;;;;;25.45;20.27;;;9.20;73.10;;;;;;5092873;28;20048;-92
2022/05/06 05:19:49;;;;;;;22.55;18.70;;;9.20;73.10;;;;;;5092024;28;20501;-92
2022/05/06 05:22:18;;;;;;;24.35;19.50;;;9.20;73.20;;;;;;5093183;28;20524;-92
2022/05/06 05:24:45;;;;;;;23.50;19.27;;;9.20;73.20;;;;;;5093365;28;20105;-91
2022/05/06 05:27:14;;;;;;;22.77;19.67;;;9.20;73.20;;;;;;5092470;28;20445;-92
2022/05/06 05:29:59;;;;;;;26.10;19.38;;;9.20;73.30;;;;;;5092701;28;20180;-93
2022/05/06 05:32:26;;;;;;;23.98;19.42;;;9.20;73.30;;;;;;5092710;28;20040;-92
2022/05/06 05:34:53;;;;;;;24.27;19.83;;;9.20;73.30;;;;;;5092659;28;20109;-92
2022/05/06 05:37:22;;;;;;;22.67;20.00;;;9.20;73.40;;;;;;5092433;28;20051;-91
2022/05/06 05:39:49;;;;;;;22.98;19.65;;;9.20;73.40;;;;;;5092881;28;20055;-91
2022/05/06 05:42:35;;;;;;;25.20;20.75;;;9.20;73.50;;;;;;5092164;28;20052;-90
2022/05/06 05:50:35;;;;;;;25.65;19.85;;;9.20;73.60;;;;;;5092254;28;20047;-91
2022/05/06 05:53:05;;;;;;;27.75;21.20;;;9.30;73.70;;;;;;5091903;28;20460;-91
2022/05/06 05:55:32;;;;;;;29.38;20.60;;;9.30;73.80;;;;;;5092177;28;20051;-89
2022/05/06 05:57:59;;;;;;;24.90;19.80;;;9.30;73.90;;;;;;5091781;28;20052;-93
2022/05/06 06:00:27;;;;;;;28.08;21.70;;;9.30;74.00;;;;;;5091863;28;20048;-91
2022/05/06 06:02:55;;;;;;;25.35;19.83;;;9.40;74.00;;;;;;5091924;28;20048;-90
2022/05/06 06:05:23;;;;;;;24.30;19.23;;;9.40;74.10;;;;;;5091801;28;20044;-90
2022/05/06 06:07:50;;;;;;;26.25;19.02;;;9.40;74.10;;;;;;5091784;28;20052;-90
2022/05/06 06:10:17;;;;;;;28.75;21.92;;;9.40;74.10;;;;;;5091925;28;20105;-89
2022/05/06 06:12:44;;;;;;;28.83;22.80;;;9.50;74.10;;;;;;5092097;28;20056;-91
2022/05/06 06:15:11;;;;;;;27.02;21.77;;;9.50;74.20;;;;;;5091920;28;20460;-90
2022/05/06 06:17:38;;;;;;;24.58;19.33;;;9.60;74.40;;;;;;5091762;28;20051;-89
2022/05/06 06:20:07;;;;;;;22.63;19.23;;;9.70;74.40;;;;;;5093424;28;20105;-91
2022/05/06 06:22:34;;;;;;;24.27;20.38;;;9.70;74.40;;;;;;5094868;28;20101;-91
2022/05/06 06:25:00;;;;;;;33.47;25.10;;;9.70;74.40;;;;;;5096715;28;20077;-91
2022/05/06 06:27:28;;;;;;;24.75;21.02;;;9.80;74.50;;;;;;5095630;28;20048;-89
2022/05/06 06:29:55;;;;;;;24.67;19.98;;;9.90;74.70;;;;;;5095790;28;20040;-90
2022/05/06 06:32:22;;;;;;;31.08;22.33;;;9.90;74.70;;;;;;5095729;28;20078;-89
2022/05/06 06:34:51;;;;;;;27.10;20.58;;;10.00;74.70;;;;;;5096243;28;20059;-91
2022/05/06 06:37:38;;;;;;;24.55;20.50;;;10.10;74.80;;;;;;5080622;28;20039;-92
2022/05/06 06:40:06;;;;;;;25.98;20.70;;;10.20;74.80;;;;;;5094707;28;20509;-90
2022/05/06 06:42:33;;;;;;;27.58;21.10;;;10.20;74.80;;;;;;5094796;28;20044;-91
2022/05/06 06:45:00;;;;;;;27.02;22.00;;;10.30;74.90;;;;;;5095623;28;20456;-90
2022/05/06 06:47:27;;;;;;;28.38;21.42;;;10.40;75.00;;;;;;5095609;28;20040;-91
2022/05/06 06:49:54;;;;;;;26.02;20.48;;;10.50;75.00;;;;;;5095590;28;20056;-92
2022/05/06 06:52:21;;;;;;;26.55;21.60;;;10.60;75.10;;;;;;5090836;28;20044;-90
2022/05/06 06:54:48;;;;;;;28.35;21.88;;;10.60;75.20;;;;;;5093427;28;20502;-91
2022/05/06 06:57:14;;;;;;;30.42;24.00;;;10.80;75.30;;;;;;5088357;28;20502;-91
2022/05/06 06:59:41;;;;;;;26.98;21.20;;;10.90;75.40;;;;;;5086551;28;20070;-90
2022/05/06 07:02:09;;;;;;;27.92;21.08;;;10.90;75.50;;;;;;5078339;28;20044;-91
2022/05/06 07:04:36;;;;;;;28.33;22.77;;;11.00;75.50;;;;;;5091458;28;20126;-92
2022/05/06 07:12:34;;;;;;;27.88;22.40;;;11.40;75.60;;;;;;5078681;28;20563;-91
2022/05/06 07:15:19;;;;;;;27.35;21.23;;;11.40;75.60;;;;;;5079606;28;20051;-91
2022/05/06 07:17:46;;;;;;;32.05;21.88;;;11.50;75.60;;;;;;5082420;28;20048;-92
2022/05/06 07:20:12;;;;;;;23.80;20.13;;;11.60;75.60;;;;;;5089770;28;20502;-89
2022/05/06 07:22:39;;;;;;;25.30;19.65;;;11.70;75.60;;;;;;5076003;28;20102;-91
2022/05/06 07:25:07;;;;;;;27.17;20.27;;;11.80;75.60;;;;;;5077491;28;20044;-92
2022/05/06 07:27:37;;;;;;;25.48;19.80;;;11.90;75.60;;;;;;5079952;28;20048;-91
2022/05/06 07:30:04;;;;;;;22.50;19.08;;;12.00;75.60;;;;;;5079188;28;20044;-90
2022/05/06 07:32:31;;;;;;;23.15;18.38;;;12.10;75.60;;;;;;5084960;28;20040;-92
2022/05/06 07:34:58;;;;;;;24.10;19.65;;;12.20;75.60;;;;;;5090820;28;20044;-91
2022/05/06 07:37:25;;;;;;;23.00;18.35;;;12.30;75.60;;;;;;5075962;28;20090;-89
2022/05/06 07:39:52;;;;;;;22.98;17.88;;;12.40;75.60;;;;;;5089949;28;20064;-92
2022/05/06 07:42:20;;;;;;;21.38;16.63;;;12.40;75.50;;;;;;5080107;28;20058;-91
2022/05/06 07:44:46;;;;;;;19.70;16.90;;;12.50;75.50;;;;;;5081952;28;20078;-91
2022/05/06 07:47:13;;;;;;;22.13;16.63;;;12.60;75.40;;;;;;5089130;28;20039;-91
2022/05/06 07:49:47;;;;;;;19.85;15.20;;;12.70;75.30;;;;;;5076456;28;20083;-92
2022/05/06 07:52:14;;;;;;;20.13;15.57;;;12.80;75.20;;;;;;5076090;28;20494;-91
2022/05/06 07:54:41;;;;;;;17.55;14.13;;;12.90;75.10;;;;;;5089800;28;20056;-92
2022/05/06 07:57:09;;;;;;;18.55;14.13;;;13.00;75.00;;;;;;5087092;28;20461;-93
2022/05/06 07:59:35;;;;;;;17.38;14.18;;;13.10;74.90;;;;;;5088361;28;20040;-92
2022/05/06 08:04:49;;;;;;;15.70;13.00;;;13.30;74.60;;;;;;5089364;28;20048;-91
2022/05/06 08:07:17;;;;;;;16.55;12.85;;;13.40;74.50;;;;;;5075885;28;20052;-92
2022/05/06 08:09:47;;;;;;;17.52;13.07;;;13.50;74.40;;;;;;5078535;28;20047;-91
2022/05/06 08:12:14;;;;;;;14.73;12.20;;;13.50;74.30;;;;;;5089276;28;20101;-95
2022/05/06 08:14:42;;;;;;;17.55;11.63;;;13.60;74.10;;;;;;5088350;28;20041;-93
2022/05/06 08:17:09;;;;;;;15.65;12.13;;;13.80;74.00;;;;;;5078657;28;20043;-92
2022/05/06 08:19:36;;;;;;;15.10;12.00;;;13.90;73.80;;;;;;5073718;28;20102;-91
2022/05/06 08:22:03;;;;;;;15.65;11.70;;;13.90;73.70;;;;;;5093661;28;20052;-92
2022/05/06 08:24:30;;;;;;;13.73;10.30;;;14.00;73.50;;;;;;5092498;28;20048;-91
2022/05/06 08:27:15;;;;;;;13.00;10.93;;;14.20;73.30;;;;;;5086241;28;20414;-92
2022/05/06 08:29:42;;;;;;;12.75;10.38;;;14.30;73.20;;;;;;5089210;28;20522;-92
2022/05/06 08:32:09;;;;;;;16.02;9.80;;;14.40;73.00;;;;;;5086594;28;20090;-92
2022/05/06 08:34:37;;;;;;;11.07;9.88;;;14.40;72.80;;;;;;5091532;28;20040;-93
2022/05/06 08:37:24;;;;;;;11.00;9.40;;;14.60;72.70;;;;;;5072946;28;20048;-91
2022/05/06 08:39:51;;;;;;;11.82;9.32;;;14.70;72.50;;;;;;5077489;28;20106;-93
2022/05/06 08:42:20;;;;;;;10.95;8.90;;;14.80;72.30;;;;;;5084465;28;20643;-92
2022/05/06 08:53:26;;;;;;;9.95;7.85;;;15.20;71.40;;;;;;5089153;28;20101;-92
2022/05/06 08:55:55;;;;;;;9.60;7.90;;;15.40;71.20;;;;;;5076106;28;20510;-92
2022/05/06 08:58:23;;;;;;;9.27;7.40;;;15.40;70.90;;;;;;5074369;28;20052;-93
2022/05/06 09:00:51;;;;;;;8.73;7.40;;;15.60;70.70;;;;;;5077579;28;20052;-90
2022/05/06 09:03:18;;;;;;;11.63;7.25;;;15.70;70.50;;;;;;5077675;28;20076;-92
2022/05/06 09:05:57;;;;;;;8.30;6.68;;;15.80;70.30;;;;;;5077041;28;20506;-92
2022/05/06 09:08:35;;;;;;;11.50;6.78;;;15.90;70.00;;;;;;5077382;28;20109;-92
2022/05/06 09:11:05;;;;;;;10.07;6.30;;;16.00;69.70;;;;;;5077408;28;20082;-93
2022/05/06 09:13:51;;;;;;;10.25;5.63;;;16.10;69.50;;;;;;5089742;28;20047;-92
2022/05/06 09:19:21;;;;;;;8.55;6.18;;;16.30;69.00;;;;;;5088703;28;20048;-91
2022/05/06 09:22:06;;;;;;;11.80;5.53;;;16.40;68.70;;;;;;5091695;28;20051;-91
2022/05/06 09:24:34;;;;;;;10.57;5.40;;;16.50;68.50;;;;;;5086548;28;20098;-89
2022/05/06 09:27:12;;;;;;;8.05;5.45;;;16.60;68.30;;;;;;5080647;28;20098;-91
2022/05/06 09:35:58;;;;;;;9.77;4.97;;;16.90;67.60;;;;;;5076668;28;20039;-93
2022/05/06 09:38:27;;;;;;;10.07;4.90;;;17.00;67.40;;;;;;5077147;28;20036;-91
2022/05/06 09:40:54;;;;;;;10.32;5.28;;;17.10;67.20;;;;;;5075262;28;20056;-90
2022/05/06 09:43:21;;;;;;;9.77;4.70;;;17.20;67.00;;;;;;5074129;28;20052;-91
2022/05/06 09:45:48;;;;;;;9.65;5.05;;;17.40;66.80;;;;;;5076831;28;20490;-90
2022/05/06 09:48:15;;;;;;;8.25;4.68;;;17.40;66.60;;;;;;5076529;28;20045;-91
2022/05/06 09:50:47;;;;;;;7.03;4.43;;;17.50;66.30;;;;;;5076850;28;20048;-91
2022/05/06 09:53:20;;;;;;;8.02;4.60;;;17.60;66.10;;;;;;5076560;28;20040;-90
2022/05/06 09:55:48;;;;;;;7.18;4.10;;;17.80;65.90;;;;;;5073769;28;20070;-91
2022/05/06 09:58:17;;;;;;;8.15;4.18;;;17.90;65.60;;;;;;5088294;28;20048;-91
2022/05/06 10:00:44;;;;;;;8.63;4.18;;;17.90;65.30;;;;;;5072144;28;20052;-93
2022/05/06 10:03:11;;;;;;;8.05;4.38;;;18.10;65.10;;;;;;5076883;28;20045;-94
2022/05/06 10:05:39;;;;;;;6.85;4.57;;;18.20;64.90;;;;;;5073976;28;20098;-94
2022/05/06 10:08:26;;;;;;;11.48;4.53;;;18.30;64.60;;;;;;5077207;28;20062;-91
2022/05/06 10:10:58;;;;;;;6.63;3.95;;;18.40;64.30;;;;;;5075515;28;20059;-93
2022/05/06 10:13:28;;;;;;;9.90;3.80;;;18.40;64.10;;;;;;5089812;28;20045;-90
2022/05/06 10:15:56;;;;;;;10.00;4.35;;;18.50;63.90;;;;;;5087764;28;20052;-92
2022/05/06 10:18:35;;;;;;;8.93;4.10;;;18.60;63.60;;;;;;5076761;28;20044;-92
2022/05/06 10:21:04;;;;;;;7.78;3.78;;;18.70;63.40;;;;;;5076417;28;20048;-91
2022/05/06 10:23:51;;;;;;;7.72;3.45;;;18.80;63.20;;;;;;5082508;28;20097;-91
2022/05/06 10:26:42;;;;;;;8.57;3.72;;;18.90;63.00;;;;;;5081421;28;20044;-93
2022/05/06 10:32:51;;;;;;;9.10;3.60;;;19.10;62.60;;;;;;5074051;28;20044;-94
2022/05/06 10:35:19;;;;;;;8.27;3.70;;;19.20;62.30;;;;;;5076227;28;20041;-93
2022/05/06 10:37:46;;;;;;;10.75;3.10;;;19.30;62.20;;;;;;5079614;28;20048;-93
2022/05/06 10:40:32;;;;;;;5.45;3.00;;;19.40;61.90;;;;;;5073205;28;20497;-92
2022/05/06 10:42:59;;;;;;;6.15;3.22;;;19.50;61.60;;;;;;5081424;28;20491;-94
2022/05/06 10:45:32;;;;;;;6.22;2.92;;;19.60;61.40;;;;;;5084279;28;20097;-92
2022/05/06 10:47:59;;;;;;;10.05;3.35;;;19.70;61.20;;;;;;5079850;28;20064;-93
2022/05/06 10:50:36;;;;;;;5.15;2.95;;;19.80;61.00;;;;;;5076114;28;20570;-92
2022/05/06 10:53:04;;;;;;;4.30;2.70;;;19.90;60.80;;;;;;5079855;28;20051;-93
2022/05/06 10:55:31;;;;;;;5.88;2.92;;;19.90;60.50;;;;;;5086449;28;20044;-93
2022/05/06 11:00:49;;;;;;;4.63;2.55;;;20.10;60.10;;;;;;5075336;28;20507;-93
2022/05/06 11:03:17;;;;;;;7.13;2.83;;;20.20;59.80;;;;;;5075899;28;20106;-93
2022/05/06 11:05:51;;;;;;;4.68;2.50;;;20.30;59.60;;;;;;5080205;28;20051;-93
2022/05/06 11:08:21;;;;;;;;;;;20.40;59.40;;;;;;5088323;28;20102;-91
2022/05/06 11:10:54;;;;;;;4.20;2.45;;;20.50;59.30;;;;;;5093970;28;19924;-91
2022/05/06 11:13:32;;;;;;;3.67;2.13;;;20.50;59.00;;;;;;5076673;28;20051;-93
2022/05/06 11:16:05;;;;;;;5.55;2.50;;;20.60;58.70;;;;;;5090478;28;20116;-92
2022/05/06 11:18:44;;;;;;;5.45;2.20;;;20.70;58.40;;;;;;5089963;28;20502;-90
2022/05/06 11:21:22;;;;;;;6.30;2.30;;;20.80;58.20;;;;;;5081284;28;20048;-94
2022/05/06 11:23:52;;;;;;;4.65;2.33;;;20.90;57.80;;;;;;5096688;28;20564;-94
2022/05/06 11:26:30;;;;;;;5.75;2.08;;;20.90;57.60;;;;;;5079350;28;20101;-92
2022/05/06 11:29:04;;;;;;;4.15;2.20;;;21.00;57.40;;;;;;5074892;28;20056;-93
2022/05/06 11:31:31;;;;;;;5.65;2.10;;;21.10;57.20;;;;;;5091216;28;20430;-93
2022/05/06 11:34:04;;;;;;;4.35;2.10;;;21.20;57.00;;;;;;5078959;28;20132;-94
2022/05/06 11:36:31;;;;;;;3.92;1.70;;;21.30;56.70;;;;;;5080446;28;20056;-93
2022/05/06 11:38:58;;;;;;;3.65;1.85;;;21.40;56.50;;;;;;5079292;28;20052;-95
2022/05/06 11:41:26;;;;;;;3.97;1.77;;;21.40;56.30;;;;;;5078151;28;20049;-93
2022/05/06 11:44:04;;;;;;;4.25;2.08;;;21.50;56.10;;;;;;5092069;28;20048;-94
2022/05/06 11:52:09;;;;;;;4.50;2.10;;;21.70;55.40;;;;;;5090139;28;20051;-93
2022/05/06 11:54:36;;;;;;;4.03;1.77;;;21.80;55.20;;;;;;5079443;28;20490;-92
2022/05/06 11:57:04;;;;;;;3.45;1.92;;;21.90;54.90;;;;;;5086251;28;20048;-91
2022/05/06 11:59:32;;;;;;;4.25;1.77;;;21.90;54.70;;;;;;5086305;28;20040;-91
2022/05/06 12:02:06;;;;;;;3.95;1.60;;;21.90;54.50;;;;;;5077581;28;20358;-91
2022/05/06 12:04:33;;;;;;;5.10;1.70;;;22.00;54.10;;;;;;5073891;28;20461;-91
2022/05/06 12:07:00;;;;;;;4.10;1.83;;;22.00;53.90;;;;;;5074008;28;20053;-93
2022/05/06 12:09:28;;;;;;;3.83;1.85;;;22.10;53.80;;;;;;5078616;28;20057;-93
2022/05/06 12:12:04;;;;;;;4.95;1.92;;;22.10;53.60;;;;;;5086623;28;20044;-93
2022/05/06 12:14:31;;;;;;;7.25;1.98;;;22.10;53.40;;;;;;5086666;28;20044;-92
2022/05/06 12:17:00;;;;;;;4.47;1.83;;;22.10;53.30;;;;;;5075649;28;20047;-94
2022/05/06 12:19:37;;;;;;;4.03;1.73;;;22.20;53.20;;;;;;5074914;28;20052;-93
2022/05/06 12:22:05;;;;;;;3.78;1.80;;;22.20;53.10;;;;;;5089658;28;20055;-92
2022/05/06 12:24:55;;;;;;;4.05;1.70;;;22.30;52.90;;;;;;5078359;28;20564;-92
2022/05/06 12:27:33;;;;;;;3.47;1.90;;;22.30;52.70;;;;;;5078123;28;20516;-93
2022/05/06 12:30:01;;;;;;;3.35;1.55;;;22.40;52.70;;;;;;5075082;28;20052;-91
2022/05/06 12:32:28;;;;;;;3.58;1.85;;;22.40;52.60;;;;;;5078231;28;20162;-92
2022/05/06 12:35:09;;;;;;;4.22;1.60;;;22.40;52.50;;;;;;5076622;28;20497;-92
2022/05/06 12:37:52;;;;;;;3.95;1.73;;;22.40;52.40;;;;;;5073861;28;20044;-93
2022/05/06 12:40:19;;;;;;;3.88;1.50;;;22.60;52.30;;;;;;5073642;28;20052;-92
2022/05/06 12:43:08;;;;;;;4.07;1.83;;;22.60;52.10;;;;;;5078420;28;20052;-95
2022/05/06 12:45:36;;;;;;;3.50;1.70;;;22.70;51.90;;;;;;5081625;28;20057;-94
2022/05/06 12:50:49;;;;;;;4.40;1.60;;;22.80;51.80;;;;;;5091700;28;20502;-95
2022/05/06 12:53:19;;;;;;;5.05;1.80;;;22.80;51.60;;;;;;5094230;28;20051;-94
2022/05/06 12:55:46;;;;;;;3.10;1.42;;;22.90;51.50;;;;;;5093553;28;20089;-94
2022/05/06 12:58:13;;;;;;;5.00;1.58;;;22.90;51.40;;;;;;5091321;28;20048;-93
2022/05/06 13:00:40;;;;;;;4.03;1.63;;;22.90;51.20;;;;;;5079937;28;20102;-93
2022/05/06 13:03:07;;;;;;;3.53;1.50;;;23.00;51.00;;;;;;5081389;28;20059;-92
2022/05/06 13:05:35;;;;;;;4.25;1.70;;;23.10;50.80;;;;;;5083608;28;20067;-93
2022/05/06 13:08:06;;;;;;;4.57;1.42;;;23.10;50.70;;;;;;5091619;28;20048;-93
2022/05/06 13:10:33;;;;;;;6.07;1.75;;;23.20;50.50;;;;;;5073621;28;20039;-95
2022/05/06 13:13:02;;;;;;;3.45;1.40;;;23.30;50.40;;;;;;5089080;28;20047;-94
2022/05/06 13:15:29;;;;;;;3.97;1.50;;;23.30;50.30;;;;;;5072878;28;20040;-95
2022/05/06 13:17:56;;;;;;;2.75;1.25;;;23.30;50.20;;;;;;5076037;28;20468;-93
2022/05/06 13:20:24;;;;;;;3.60;1.40;;;23.40;50.00;;;;;;5071981;28;20051;-96
2022/05/06 13:22:51;;;;;;;4.70;1.60;;;23.40;49.80;;;;;;5077273;28;20040;-95
2022/05/06 13:25:36;;;;;;;3.17;1.27;;;23.50;49.70;;;;;;5072702;28;20035;-94
2022/05/06 13:28:03;;;;;;;3.45;1.27;;;23.50;49.60;;;;;;5089077;28;20052;-92
2022/05/06 13:30:30;;;;;;;4.07;1.52;;;23.60;49.50;;;;;;5084385;28;20052;-96
2022/05/06 13:32:57;;;;;;;2.90;1.30;;;23.60;49.40;;;;;;5076805;28;20098;-94
2022/05/06 13:35:27;;;;;;;6.65;1.30;;;23.70;49.40;;;;;;5075131;28;20056;-94
2022/05/06 13:37:55;;;;;;;4.45;1.38;;;23.80;49.20;;;;;;5087681;28;20484;-95
2022/05/06 13:40:22;;;;;;;3.50;1.63;;;23.80;49.20;;;;;;5073250;28;20056;-93
2022/05/06 13:42:49;;;;;;;3.45;1.42;;;23.90;49.10;;;;;;5076870;28;20099;-94
2022/05/06 13:45:16;;;;;;;3.35;1.45;;;23.90;48.80;;;;;;5085863;28;20055;-94
2022/05/06 13:47:43;;;;;;;4.45;1.42;;;23.90;48.80;;;;;;5079677;28;20083;-94
2022/05/06 13:50:11;;;;;;;3.65;1.48;;;23.90;48.70;;;;;;5079601;28;20040;-95